createdAt,value
2023-02-26T00:01:34.010Z,8.38
2023-02-26T00:04:03.796Z,3.83
2023-02-26T00:06:34.432Z,3.60
2023-02-26T00:09:03.492Z,4.50
2023-02-26T00:11:35.227Z,3.63
2023-02-26T00:14:03.627Z,3.90
2023-02-26T00:16:35.063Z,4.25
2023-02-26T00:19:06.622Z,3.90
2023-02-26T00:21:36.843Z,3.88
2023-02-26T00:24:06.664Z,3.15
2023-02-26T00:26:36.874Z,3.10
2023-02-26T00:29:05.818Z,4.13
2023-02-26T00:31:34.318Z,4.75
2023-02-26T00:34:02.901Z,3.40
2023-02-26T00:36:40.329Z,5.55
2023-02-26T00:39:27.541Z,4.25
2023-02-26T00:41:57.569Z,5.50
2023-02-26T00:44:26.205Z,5.45
2023-02-26T00:47:01.583Z,3.65
2023-02-26T00:49:43.297Z,4.07
2023-02-26T00:52:16.281Z,5.43
2023-02-26T00:54:44.418Z,4.70
2023-02-26T00:57:13.835Z,3.85
2023-02-26T01:02:09.743Z,4.18
2023-02-26T01:04:38.793Z,3.17
2023-02-26T01:07:09.661Z,3.17
2023-02-26T01:09:39.220Z,2.85
2023-02-26T01:12:09.419Z,3.33
2023-02-26T01:14:39.515Z,4.68
2023-02-26T01:17:16.044Z,3.40
2023-02-26T01:19:50.300Z,3.10
2023-02-26T01:22:23.441Z,3.20
2023-02-26T01:24:57.366Z,3.30
2023-02-26T01:27:25.892Z,5.63
2023-02-26T01:29:55.867Z,2.90
2023-02-26T01:32:30.958Z,2.90
2023-02-26T01:35:04.057Z,4.00
2023-02-26T01:37:39.503Z,3.80
2023-02-26T01:40:44.428Z,3.13
2023-02-26T01:43:19.417Z,3.30
2023-02-26T01:45:58.596Z,2.80
2023-02-26T01:48:37.293Z,4.03
2023-02-26T01:51:06.326Z,3.00
2023-02-26T01:53:35.617Z,3.10
2023-02-26T01:56:13.376Z,3.30
2023-02-26T01:58:42.270Z,3.25
2023-02-26T02:01:11.806Z,2.60
2023-02-26T02:03:42.242Z,3.40
2023-02-26T02:06:16.437Z,2.63
2023-02-26T02:08:45.572Z,2.67
2023-02-26T02:11:15.570Z,3.10
2023-02-26T02:13:57.520Z,3.00
2023-02-26T02:16:35.813Z,3.22
2023-02-26T02:19:26.249Z,2.50
2023-02-26T02:22:16.098Z,3.17
2023-02-26T02:24:59.105Z,3.08
2023-02-26T02:27:36.609Z,3.33
2023-02-26T02:30:26.483Z,2.78
2023-02-26T02:33:00.347Z,3.33
2023-02-26T02:35:33.724Z,5.07
2023-02-26T02:38:07.958Z,5.25
2023-02-26T02:40:40.537Z,3.35
2023-02-26T02:43:13.216Z,3.67
2023-02-26T02:45:45.548Z,3.90
2023-02-26T02:48:19.924Z,4.32
2023-02-26T02:50:52.795Z,3.67
2023-02-26T02:53:25.305Z,3.95
2023-02-26T02:55:59.942Z,4.25
2023-02-26T02:58:31.789Z,3.85
2023-02-26T03:01:03.903Z,4.38
2023-02-26T03:03:40.434Z,4.85
2023-02-26T03:06:09.075Z,3.53
2023-02-26T03:08:41.299Z,4.85
2023-02-26T03:11:10.323Z,4.88
2023-02-26T03:13:40.377Z,4.80
2023-02-26T03:16:23.408Z,5.05
2023-02-26T03:19:00.394Z,4.80
2023-02-26T03:21:33.694Z,5.25
2023-02-26T03:24:09.696Z,5.88
2023-02-26T03:26:44.794Z,5.75
2023-02-26T03:29:24.583Z,6.00
2023-02-26T03:31:57.222Z,5.10
2023-02-26T03:34:31.479Z,4.55
2023-02-26T03:37:04.867Z,8.15
2023-02-26T03:39:38.723Z,7.35
2023-02-26T03:42:12.648Z,6.25
2023-02-26T03:44:45.257Z,5.65
2023-02-26T03:47:16.289Z,6.00
2023-02-26T03:49:49.254Z,7.53
2023-02-26T03:52:17.819Z,6.15
2023-02-26T03:54:52.019Z,5.20
2023-02-26T03:57:20.177Z,6.50
2023-02-26T03:59:48.268Z,5.78
2023-02-26T04:02:19.684Z,6.25
2023-02-26T04:04:54.857Z,5.88
2023-02-26T04:07:23.664Z,6.63
2023-02-26T04:09:53.099Z,6.22
2023-02-26T04:12:23.269Z,6.70
2023-02-26T04:14:51.916Z,7.28
2023-02-26T04:17:20.328Z,6.85
2023-02-26T04:19:49.749Z,6.30
2023-02-26T04:24:45.807Z,5.07
2023-02-26T04:27:13.848Z,6.18
2023-02-26T04:29:41.959Z,5.68
2023-02-26T04:32:10.144Z,7.45
2023-02-26T04:34:38.491Z,5.93
2023-02-26T04:37:08.034Z,6.43
2023-02-26T04:39:36.103Z,5.45
2023-02-26T04:42:04.463Z,5.28
2023-02-26T04:44:32.722Z,8.52
2023-02-26T04:47:01.171Z,5.72
2023-02-26T04:49:29.285Z,6.27
2023-02-26T04:51:57.374Z,7.15
2023-02-26T04:54:26.825Z,5.43
2023-02-26T04:59:22.872Z,5.90
2023-02-26T05:01:50.964Z,7.43
2023-02-26T05:04:19.174Z,5.82
2023-02-26T05:06:47.285Z,5.05
2023-02-26T05:09:15.343Z,5.45
2023-02-26T05:11:44.780Z,5.55
2023-02-26T05:16:40.841Z,5.78
2023-02-26T05:19:09.056Z,4.53
2023-02-26T05:21:37.284Z,5.18
2023-02-26T05:24:05.886Z,4.63
2023-02-26T05:26:34.146Z,3.60
2023-02-26T05:29:03.745Z,4.18
2023-02-26T05:31:31.916Z,4.85
2023-02-26T05:34:00.033Z,4.80
2023-02-26T05:36:28.161Z,4.80
2023-02-26T05:38:56.212Z,4.78
2023-02-26T05:41:24.921Z,5.13
2023-02-26T05:43:53.002Z,3.45
2023-02-26T05:46:22.781Z,5.00
2023-02-26T05:48:50.950Z,6.13
2023-02-26T05:51:19.014Z,4.88
2023-02-26T05:53:47.402Z,4.90
2023-02-26T05:56:17.579Z,4.95
2023-02-26T05:58:45.933Z,4.95
2023-02-26T06:01:14.160Z,6.93
2023-02-26T06:03:44.232Z,4.97
2023-02-26T06:06:12.434Z,5.60
2023-02-26T06:08:40.484Z,5.60
2023-02-26T06:11:08.656Z,4.95
2023-02-26T06:13:37.141Z,4.75
2023-02-26T06:16:05.713Z,4.40
2023-02-26T06:18:33.905Z,6.82
2023-02-26T06:21:03.915Z,5.85
2023-02-26T06:23:31.970Z,4.55
2023-02-26T06:26:00.481Z,5.57
2023-02-26T06:28:28.624Z,5.30
2023-02-26T06:30:57.129Z,5.65
2023-02-26T06:33:25.479Z,4.07
2023-02-26T06:35:54.070Z,5.57
2023-02-26T06:38:23.534Z,5.83
2023-02-26T06:43:19.446Z,6.18
2023-02-26T06:45:47.591Z,6.18
2023-02-26T06:48:15.924Z,6.45
2023-02-26T06:50:44.020Z,6.22
2023-02-26T06:53:12.139Z,6.72
2023-02-26T06:55:45.954Z,4.45
2023-02-26T06:58:14.530Z,4.55
2023-02-26T07:00:42.671Z,5.33
2023-02-26T07:03:13.229Z,4.72
2023-02-26T07:05:41.681Z,6.63
2023-02-26T07:08:10.146Z,6.90
2023-02-26T07:10:38.948Z,12.65
2023-02-26T07:13:08.559Z,11.52
2023-02-26T07:15:36.889Z,9.77
2023-02-26T07:18:05.263Z,7.32
2023-02-26T07:20:34.106Z,3.90
2023-02-26T07:23:02.888Z,5.60
2023-02-26T07:25:31.038Z,5.05
2023-02-26T07:27:59.981Z,5.70
2023-02-26T07:30:29.676Z,4.57
2023-02-26T07:32:58.007Z,5.15
2023-02-26T07:35:26.074Z,5.90
2023-02-26T07:37:54.319Z,5.47
2023-02-26T07:40:22.421Z,6.30
2023-02-26T07:42:50.438Z,4.70
2023-02-26T07:45:22.363Z,4.00
2023-02-26T07:47:53.041Z,6.35
2023-02-26T07:50:24.859Z,3.67
2023-02-26T07:52:54.178Z,4.70
2023-02-26T07:55:22.294Z,4.03
2023-02-26T07:57:50.367Z,5.20
2023-02-26T08:00:19.622Z,5.50
2023-02-26T08:02:47.765Z,4.50
2023-02-26T08:05:17.402Z,4.03
2023-02-26T08:07:45.648Z,6.03
2023-02-26T08:10:13.727Z,3.92
2023-02-26T08:12:41.856Z,5.05
2023-02-26T08:15:13.161Z,4.32
2023-02-26T08:17:41.540Z,4.95
2023-02-26T08:20:11.908Z,4.82
2023-02-26T08:22:41.348Z,4.13
2023-02-26T08:25:09.994Z,3.95
2023-02-26T08:27:38.084Z,3.05
2023-02-26T08:30:08.062Z,5.95
2023-02-26T08:32:36.405Z,4.97
2023-02-26T08:35:04.484Z,5.28
2023-02-26T08:37:32.487Z,7.03
2023-02-26T08:40:01.903Z,3.90
2023-02-26T08:42:29.959Z,4.38
2023-02-26T08:44:58.028Z,4.03
2023-02-26T08:47:29.050Z,4.65
2023-02-26T08:49:58.874Z,4.53
2023-02-26T08:52:27.206Z,4.65
2023-02-26T08:54:55.292Z,4.00
2023-02-26T08:57:24.712Z,3.67
2023-02-26T08:59:52.746Z,5.22
2023-02-26T09:02:20.801Z,3.95
2023-02-26T09:04:48.909Z,2.97
2023-02-26T09:07:16.990Z,3.28
2023-02-26T09:09:45.035Z,4.30
2023-02-26T09:12:13.122Z,3.70
2023-02-26T09:14:42.552Z,4.80
2023-02-26T09:17:10.625Z,5.00
2023-02-26T09:19:38.765Z,3.97
2023-02-26T09:22:06.976Z,3.90
2023-02-26T09:24:36.567Z,3.47
2023-02-26T09:29:32.550Z,3.53
2023-02-26T09:32:02.085Z,8.02
2023-02-26T09:36:58.068Z,5.60
2023-02-26T09:39:26.123Z,5.15
2023-02-26T09:41:57.085Z,3.72
2023-02-26T09:44:26.687Z,4.18
